Time;durP1;ratioP1;P1;durP2;ratioP2;P2;SDS_P1;SDS_P2;PMS_P1;PMS_P2;Temp;Humidity;BMP_temperature;BMP_pressure;BME280_temperature;BME280_humidity;BME280_pressure;Samples;Min_cycle;Max_cycle;Signal;HPM_P1;HPM_P2
2022/02/22 00:01:27;;;;;;;24.58;4.50;;;;;;;-142.75;100.00;78208.41;5047464;28;20028;-68
2022/02/22 00:03:53;;;;;;;29.35;4.30;;;;;;;-142.75;100.00;78204.47;5049912;28;20056;-69
2022/02/22 00:06:18;;;;;;;30.80;4.77;;;;;;;-142.75;100.00;78212.34;5049909;28;20502;-69
2022/02/22 00:08:43;;;;;;;38.65;4.57;;;;;;;-142.75;100.00;78218.25;5049614;28;20063;-68
2022/02/22 00:11:09;;;;;;;24.13;4.43;;;;;;;-142.75;100.00;78220.22;5049879;28;20160;-69
2022/02/22 00:13:34;;;;;;;40.03;4.35;;;;;;;-142.75;100.00;78228.09;5032528;28;20128;-69
2022/02/22 00:16:00;;;;;;;19.65;3.42;;;;;;;-142.75;100.00;78212.34;5049867;28;20078;-68
2022/02/22 00:18:25;;;;;;;;;;;;;;;-142.75;100.00;78214.31;5049796;28;20029;-68
2022/02/22 00:20:51;;;;;;;36.10;4.00;;;;;;;-142.75;100.00;78230.06;5049940;28;19966;-68
2022/02/22 00:23:16;;;;;;;30.30;3.88;;;;;;;-142.75;100.00;78224.16;5049638;28;20028;-69
2022/02/22 00:25:42;;;;;;;28.83;3.75;;;;;;;-142.75;100.00;78239.91;5049753;28;20032;-69
2022/02/22 00:28:07;;;;;;;37.28;4.47;;;;;;;-142.75;100.00;78247.78;5049349;28;20024;-69
2022/02/22 00:30:33;;;;;;;24.23;4.43;;;;;;;-142.75;100.00;78245.81;5049829;28;20025;-69
2022/02/22 00:32:58;;;;;;;;;;;;;;;-142.75;100.00;78257.63;5026692;28;20843;-69
2022/02/22 00:35:25;;;;;;;28.43;3.90;;;;;;;-142.75;100.00;78267.47;5029840;28;19928;-68
2022/02/22 00:37:50;;;;;;;29.75;3.75;;;;;;;-142.75;100.00;78269.44;5029701;28;20453;-69
2022/02/22 00:40:17;;;;;;;28.60;3.88;;;;;;;-142.75;100.00;78257.63;5029613;28;20068;-68
2022/02/22 00:42:42;;;;;;;32.17;3.80;;;;;;;-142.75;100.00;78271.41;5030204;28;20033;-68
2022/02/22 00:45:09;;;;;;;24.65;3.95;;;;;;;-142.75;100.00;78267.47;5047624;28;20111;-69
2022/02/22 00:47:35;;;;;;;33.90;4.73;;;;;;;-142.75;100.00;78281.25;5049587;28;20458;-69
2022/02/22 00:50:01;;;;;;;25.95;4.63;;;;;;;-142.75;100.00;78271.41;5049099;28;20055;-68
2022/02/22 00:52:28;;;;;;;35.47;5.30;;;;;;;-142.75;100.00;78271.41;5049387;28;20457;-69
2022/02/22 00:54:53;;;;;;;31.33;3.80;;;;;;;-142.75;100.00;78283.22;5049434;28;20074;-69
2022/02/22 00:57:18;;;;;;;25.13;3.78;;;;;;;-142.75;100.00;78277.31;5031340;28;20017;-69
2022/02/22 00:59:44;;;;;;;40.92;5.05;;;;;;;-142.75;100.00;78293.06;5049914;28;20029;-69
2022/02/22 01:02:09;;;;;;;30.83;3.70;;;;;;;-142.75;100.00;78300.97;5053231;28;20024;-68
2022/02/22 01:04:34;;;;;;;24.25;4.32;;;;;;;-142.75;100.00;78291.09;5035290;28;20036;-68
2022/02/22 01:07:00;;;;;;;47.23;5.00;;;;;;;-142.75;100.00;78299.00;5053337;28;20448;-69
2022/02/22 01:09:25;;;;;;;33.35;4.03;;;;;;;-142.75;100.00;78299.00;5052658;28;20287;-68
2022/02/22 01:11:50;;;;;;;25.25;4.57;;;;;;;-142.75;100.00;78302.94;5053002;28;20082;-68
2022/02/22 01:14:16;;;;;;;30.60;4.70;;;;;;;-142.75;100.00;78299.00;5053511;28;20110;-69
2022/02/22 01:16:42;;;;;;;28.55;4.40;;;;;;;-142.75;100.00;78306.88;5052827;28;20126;-69
2022/02/22 01:19:08;;;;;;;35.97;5.05;;;;;;;-142.75;100.00;78308.84;5052507;28;20493;-68
2022/02/22 01:21:34;;;;;;;32.53;3.83;;;;;;;-142.75;100.00;78318.69;5052706;28;20029;-68
2022/02/22 01:24:00;;;;;;;33.13;4.97;;;;;;;-142.75;100.00;78312.78;5034765;28;20037;-68
2022/02/22 01:26:26;;;;;;;;;;;;;;;-142.75;100.00;78326.56;5052928;28;20162;-68
2022/02/22 01:28:51;;;;;;;26.13;4.13;;;;;;;-142.75;100.00;78334.44;5052410;28;20001;-68
2022/02/22 01:31:16;;;;;;;29.33;4.45;;;;;;;-142.75;100.00;78338.38;5052549;28;20024;-69
2022/02/22 01:33:42;;;;;;;26.92;3.90;;;;;;;-142.75;100.00;78332.47;5034532;28;20079;-68
2022/02/22 01:36:07;;;;;;;26.75;4.53;;;;;;;-142.75;100.00;78328.53;5052395;28;20111;-68
2022/02/22 01:38:33;;;;;;;30.42;3.72;;;;;;;-142.75;100.00;78328.53;5052101;28;20013;-68
2022/02/22 01:40:58;;;;;;;31.48;4.00;;;;;;;-142.75;100.00;78332.47;5052489;28;20094;-68
2022/02/22 01:43:24;;;;;;;24.08;4.18;;;;;;;-142.75;100.00;78326.56;5053111;28;20060;-68
2022/02/22 01:45:50;;;;;;;30.45;4.10;;;;;;;-142.75;100.00;78334.44;5034367;28;20029;-68
2022/02/22 01:48:15;;;;;;;35.00;4.32;;;;;;;-142.75;100.00;78344.28;5052093;28;20043;-68
2022/02/22 01:50:41;;;;;;;19.75;3.88;;;;;;;-142.75;100.00;78336.41;5051888;28;20037;-68
2022/02/22 01:53:06;;;;;;;29.80;4.45;;;;;;;-142.75;100.00;78342.31;5052411;28;20029;-68
2022/02/22 01:55:34;;;;;;;26.92;3.55;;;;;;;-142.75;100.00;78362.00;5052183;28;20025;-69
2022/02/22 01:58:00;;;;;;;26.13;4.37;;;;;;;-142.75;100.00;78360.03;5051859;28;20110;-68
2022/02/22 02:00:27;;;;;;;24.85;3.55;;;;;;;-142.75;100.00;78354.13;5051868;28;20041;-68
2022/02/22 02:02:53;;;;;;;19.13;3.30;;;;;;;-142.75;100.00;78346.25;5052010;28;20070;-68
2022/02/22 02:05:18;;;;;;;;;;;;;;;-142.75;100.00;78348.22;5052371;28;20021;-68
2022/02/22 02:07:43;;;;;;;31.80;3.80;;;;;;;-142.75;100.00;78362.00;5019027;28;20028;-68
2022/02/22 02:10:09;;;;;;;28.60;4.40;;;;;;;-142.75;100.00;78360.03;5031911;28;20087;-69
2022/02/22 02:12:40;;;;;;;29.17;3.88;;;;;;;-142.75;100.00;78365.94;5051907;28;20130;-69
2022/02/22 02:15:07;;;;;;;32.27;4.83;;;;;;;-142.75;100.00;78367.91;5052141;28;20025;-68
2022/02/22 02:17:34;;;;;;;26.00;3.67;;;;;;;-142.75;100.00;78367.91;5051588;28;20482;-69
2022/02/22 02:20:04;;;;;;;24.07;4.00;;;;;;;-142.75;100.00;78362.00;5050787;28;20107;-68
2022/02/22 02:22:29;;;;;;;30.13;4.30;;;;;;;-142.75;100.00;78362.00;5031778;28;20029;-68
2022/02/22 02:24:54;;;;;;;27.65;3.47;;;;;;;-142.75;100.00;78350.19;5031901;28;20036;-69
2022/02/22 02:27:20;;;;;;;26.37;3.70;;;;;;;-142.75;100.00;78358.06;5031694;28;20041;-68
2022/02/22 02:29:45;;;;;;;31.30;3.25;;;;;;;-142.75;100.00;78358.06;5031306;28;20315;-68
2022/02/22 02:32:11;;;;;;;28.63;3.63;;;;;;;-142.75;100.00;78367.91;5031854;28;20029;-69
2022/02/22 02:34:36;;;;;;;27.07;3.57;;;;;;;-142.75;100.00;78369.88;5032872;28;20040;-68
2022/02/22 02:37:02;;;;;;;24.55;3.53;;;;;;;-142.75;100.00;78362.00;5051225;28;20358;-68
2022/02/22 02:39:27;;;;;;;21.90;3.13;;;;;;;-142.75;100.00;78369.88;5051029;28;20714;-68
2022/02/22 02:41:52;;;;;;;22.23;3.30;;;;;;;-142.75;100.00;78362.00;5051320;28;20052;-68
2022/02/22 02:44:20;;;;;;;25.00;3.17;;;;;;;-142.75;100.00;78350.19;5051661;28;20112;-68
2022/02/22 02:46:46;;;;;;;22.20;3.43;;;;;;;-142.75;100.00;78362.00;5051227;28;20035;-68
2022/02/22 02:49:13;;;;;;;27.42;3.75;;;;;;;-142.75;100.00;78360.03;5050845;28;20108;-68
2022/02/22 02:51:39;;;;;;;34.07;3.70;;;;;;;-142.75;100.00;78362.00;5075124;23;20093;-69
2022/02/22 02:54:04;;;;;;;;;;;;;;;-142.75;100.00;78362.00;5060410;28;20031;-68
2022/02/22 02:56:30;;;;;;;29.43;3.93;;;;;;;-142.75;100.00;78365.94;5050097;28;20011;-68
2022/02/22 02:58:59;;;;;;;24.40;3.10;;;;;;;-142.75;100.00;78367.91;5056284;28;20017;-68
2022/02/22 03:01:27;;;;;;;35.23;4.23;;;;;;;-142.75;100.00;78369.88;5070745;28;20028;-69
2022/02/22 03:03:53;;;;;;;26.13;4.40;;;;;;;-142.75;100.00;78377.75;5070852;28;20462;-69
2022/02/22 03:06:18;;;;;;;25.60;3.78;;;;;;;-142.75;100.00;78362.00;5070938;28;20059;-69
2022/02/22 03:08:44;;;;;;;22.45;3.28;;;;;;;-142.75;100.00;78369.88;5069138;28;20036;-69
2022/02/22 03:11:09;;;;;;;22.25;2.90;;;;;;;-142.75;100.00;78373.81;5070560;28;20029;-69
2022/02/22 03:13:36;;;;;;;27.58;3.80;;;;;;;-142.75;100.00;78375.78;5056903;28;20401;-70
2022/02/22 03:16:01;;;;;;;19.60;2.93;;;;;;;-142.75;100.00;78377.75;5049201;28;20025;-68
2022/02/22 03:18:26;;;;;;;27.05;4.20;;;;;;;-142.75;100.00;78381.69;5050491;28;20138;-68
2022/02/22 03:20:52;;;;;;;21.97;2.90;;;;;;;-142.75;100.00;78385.63;5050545;28;20029;-69
2022/02/22 03:23:19;;;;;;;34.30;3.33;;;;;;;-142.75;100.00;78385.63;5048623;28;20283;-69
2022/02/22 03:25:48;;;;;;;27.40;4.00;;;;;;;-142.75;100.00;78373.81;5050638;28;20290;-69
2022/02/22 03:28:14;;;;;;;28.20;3.93;;;;;;;-142.75;100.00;78379.72;5050181;28;20675;-69
2022/02/22 03:30:39;;;;;;;24.63;2.72;;;;;;;-142.75;100.00;78371.84;5050364;28;20056;-68
2022/02/22 03:33:05;;;;;;;25.73;3.03;;;;;;;-142.75;100.00;78369.88;5049266;28;20082;-69
2022/02/22 03:35:30;;;;;;;21.05;3.03;;;;;;;-142.75;100.00;78371.84;5049220;28;20276;-69
2022/02/22 03:37:56;;;;;;;15.27;3.15;;;;;;;-142.75;100.00;78358.06;5050083;28;20490;-68
2022/02/22 03:47:05;;;;;;;21.13;2.87;;;;;;;-142.75;100.00;78365.94;5050506;28;20081;-69
2022/02/22 03:49:30;;;;;;;30.95;3.13;;;;;;;-142.75;100.00;78375.78;5049828;28;20441;-69
2022/02/22 03:51:55;;;;;;;22.35;3.47;;;;;;;-142.75;100.00;78367.91;5050138;28;20027;-68
2022/02/22 03:54:21;;;;;;;28.55;3.38;;;;;;;-142.75;100.00;78367.91;5050191;28;20086;-69
2022/02/22 03:56:46;;;;;;;23.88;3.17;;;;;;;-142.75;100.00;78381.69;5048793;28;20082;-68
2022/02/22 03:59:12;;;;;;;23.02;4.00;;;;;;;-142.75;100.00;78367.91;5049958;28;20099;-69
2022/02/22 04:01:37;;;;;;;13.40;2.13;;;;;;;-142.75;100.00;78373.81;5050078;28;20025;-68
2022/02/22 04:04:03;;;;;;;17.33;2.47;;;;;;;-142.75;100.00;78373.81;5048821;28;20032;-69
2022/02/22 04:06:28;;;;;;;28.13;3.42;;;;;;;-142.75;100.00;78377.75;5048790;28;20020;-69
2022/02/22 04:08:53;;;;;;;21.40;2.72;;;;;;;-142.75;100.00;78389.56;5048485;28;20032;-69
2022/02/22 04:11:19;;;;;;;16.33;2.50;;;;;;;-142.75;100.00;78387.59;5049765;28;20513;-68
2022/02/22 04:13:44;;;;;;;23.50;3.60;;;;;;;-142.75;100.00;78391.53;5050637;28;20041;-69
2022/02/22 04:16:09;;;;;;;21.88;3.25;;;;;;;-142.75;100.00;78393.50;5050015;28;20028;-69
2022/02/22 04:18:34;;;;;;;18.90;2.33;;;;;;;-142.75;100.00;78389.56;5048243;28;20505;-68
2022/02/22 04:21:00;;;;;;;20.90;3.00;;;;;;;-142.75;100.00;78391.53;5049983;28;20274;-69
2022/02/22 04:23:26;;;;;;;16.00;2.45;;;;;;;-142.75;100.00;78385.63;5048493;28;20263;-69
2022/02/22 04:25:51;;;;;;;17.43;2.67;;;;;;;-142.75;100.00;78393.50;5049958;28;20494;-69
2022/02/22 04:28:17;;;;;;;24.53;3.47;;;;;;;-142.75;100.00;78397.44;5049707;28;20310;-69
2022/02/22 04:30:43;;;;;;;;;;;;;;;-142.75;100.00;78383.66;5050151;28;20656;-68
2022/02/22 04:33:08;;;;;;;15.87;2.43;;;;;;;-142.75;100.00;78377.75;5049735;28;19913;-69
2022/02/22 04:35:34;;;;;;;17.10;2.43;;;;;;;-142.75;100.00;78383.66;5054638;28;20033;-67
2022/02/22 04:37:59;;;;;;;15.73;2.47;;;;;;;-142.75;100.00;78383.66;5071858;28;20287;-68
2022/02/22 04:40:25;;;;;;;16.73;2.22;;;;;;;-142.75;100.00;78365.94;5073480;28;20036;-69
2022/02/22 04:42:52;;;;;;;;;;;;;;;-142.75;100.00;78354.13;5073057;28;20426;-68
2022/02/22 04:45:17;;;;;;;9.68;1.88;;;;;;;-142.75;100.00;78362.00;5074103;28;19912;-69
2022/02/22 04:47:44;;;;;;;14.85;2.38;;;;;;;-142.75;100.00;78362.00;5073372;28;20028;-69
2022/02/22 04:50:10;;;;;;;16.80;2.87;;;;;;;-142.75;100.00;78354.13;5072763;28;20111;-69
2022/02/22 04:52:35;;;;;;;;;;;;;;;-142.75;100.00;78371.84;5074101;28;20059;-68
2022/02/22 04:55:02;;;;;;;13.90;2.10;;;;;;;-142.75;100.00;78373.81;5072157;28;19985;-68
2022/02/22 04:57:27;;;;;;;19.30;2.23;;;;;;;-142.75;100.00;78385.63;5071502;28;20028;-68
2022/02/22 04:59:52;;;;;;;12.60;2.50;;;;;;;-142.75;100.00;78377.75;5051695;28;20013;-69
2022/02/22 05:02:18;;;;;;;11.70;2.17;;;;;;;-142.75;100.00;78375.78;5052006;28;20064;-68
2022/02/22 05:04:43;;;;;;;17.83;2.10;;;;;;;-142.75;100.00;78381.69;5053362;28;20845;-69
2022/02/22 05:07:09;;;;;;;11.57;1.83;;;;;;;-142.75;100.00;78369.88;5053311;28;20321;-69
2022/02/22 05:09:34;;;;;;;14.23;2.75;;;;;;;-142.75;100.00;78367.91;5052704;28;20390;-68
2022/02/22 05:11:59;;;;;;;17.02;2.47;;;;;;;-142.75;100.00;78373.81;5054431;28;20036;-68
2022/02/22 05:14:25;;;;;;;12.48;2.65;;;;;;;-142.75;100.00;78365.94;5053590;28;20488;-67
2022/02/22 05:16:50;;;;;;;14.18;2.13;;;;;;;-142.75;100.00;78354.13;5052909;28;20495;-69
2022/02/22 05:19:17;;;;;;;16.17;2.35;;;;;;;-142.75;100.00;78336.41;5057500;28;20020;-68
2022/02/22 05:21:43;;;;;;;17.37;2.50;;;;;;;-142.75;100.00;78350.19;5059072;28;20025;-68
2022/02/22 05:24:09;;;;;;;12.32;2.50;;;;;;;-142.75;100.00;78332.47;5052802;28;20078;-69
2022/02/22 05:26:35;;;;;;;9.95;2.00;;;;;;;-142.75;100.00;78334.44;5051491;28;20032;-67
2022/02/22 05:29:00;;;;;;;17.80;2.67;;;;;;;-142.75;100.00;78334.44;5052334;28;20540;-68
2022/02/22 05:31:26;;;;;;;14.13;2.65;;;;;;;-142.75;100.00;78336.41;5052832;28;20033;-68
2022/02/22 05:33:51;;;;;;;18.77;3.55;;;;;;;-142.75;100.00;78332.47;5051447;28;20021;-68
2022/02/22 05:36:20;;;;;;;16.10;2.90;;;;;;;-142.75;100.00;78318.69;5052651;28;20029;-69
2022/02/22 05:38:46;;;;;;;23.60;3.13;;;;;;;-142.75;100.00;78318.69;5072309;28;20506;-71
2022/02/22 05:41:13;;;;;;;13.30;3.03;;;;;;;-142.75;100.00;78324.59;5072423;28;20016;-69
2022/02/22 05:43:39;;;;;;;19.37;3.57;;;;;;;-142.75;100.00;78316.72;5073074;28;20028;-68
2022/02/22 05:46:04;;;;;;;17.00;2.65;;;;;;;-142.75;100.00;78322.63;5071922;28;20401;-68
2022/02/22 05:48:29;;;;;;;19.90;2.80;;;;;;;-142.75;100.00;78328.53;5072290;28;20138;-68
2022/02/22 05:50:55;;;;;;;18.23;2.80;;;;;;;-142.75;100.00;78336.41;5072077;28;20755;-68
2022/02/22 05:53:20;;;;;;;16.45;3.20;;;;;;;-142.75;100.00;78334.44;5070472;28;20270;-69
2022/02/22 05:55:46;;;;;;;23.47;2.80;;;;;;;-142.75;100.00;78342.31;5064916;28;20021;-69
2022/02/22 05:58:11;;;;;;;18.55;2.70;;;;;;;-142.75;100.00;78346.25;5052045;28;20024;-68
2022/02/22 06:00:36;;;;;;;16.35;2.33;;;;;;;-142.75;100.00;78342.31;5050953;28;20479;-68
2022/02/22 06:03:02;;;;;;;17.00;2.97;;;;;;;-142.75;100.00;78344.28;5051010;28;20433;-68
2022/02/22 06:05:27;;;;;;;13.05;2.45;;;;;;;-142.75;100.00;78350.19;5052251;28;20391;-68
2022/02/22 06:07:52;;;;;;;15.65;2.28;;;;;;;-142.75;100.00;78358.06;5051664;28;20021;-69
2022/02/22 06:10:18;;;;;;;18.70;4.77;;;;;;;-142.75;100.00;78365.94;5052102;28;20455;-70
2022/02/22 06:12:48;;;;;;;16.38;2.70;;;;;;;-142.75;100.00;78358.06;5050795;28;20317;-69
2022/02/22 06:15:13;;;;;;;21.37;2.83;;;;;;;-142.75;100.00;78369.88;5052492;28;20025;-69
2022/02/22 06:17:44;;;;;;;23.40;2.85;;;;;;;-142.75;100.00;78381.69;5050774;28;20033;-69
2022/02/22 06:20:10;;;;;;;13.03;2.13;;;;;;;-142.75;100.00;78377.75;5051716;28;20033;-69
2022/02/22 06:22:36;;;;;;;16.20;2.27;;;;;;;-142.75;100.00;78371.84;5051544;28;20123;-69
2022/02/22 06:25:06;;;;;;;13.30;2.25;;;;;;;-142.75;100.00;78362.00;5051975;28;20486;-69
2022/02/22 06:27:31;;;;;;;17.03;2.17;;;;;;;-142.75;100.00;78369.88;5051703;28;20031;-69
2022/02/22 06:29:57;;;;;;;17.60;2.20;;;;;;;-142.75;100.00;78383.66;5051419;28;20095;-69
2022/02/22 06:32:22;;;;;;;20.05;2.45;;;;;;;-142.75;100.00;78389.56;5051566;28;20283;-69
2022/02/22 06:34:48;;;;;;;20.90;2.58;;;;;;;-142.75;100.00;78387.59;5051775;28;20556;-69
2022/02/22 06:37:13;;;;;;;24.05;3.03;;;;;;;-142.75;100.00;78383.66;5051538;28;20509;-70
2022/02/22 06:39:38;;;;;;;19.25;2.50;;;;;;;-142.75;100.00;78369.88;5052686;28;20029;-69
2022/02/22 06:42:04;;;;;;;17.33;2.07;;;;;;;-142.75;100.00;78362.00;5050968;28;20032;-69
2022/02/22 06:44:29;;;;;;;26.42;2.80;;;;;;;-142.75;100.00;78363.97;5051265;28;20354;-68
2022/02/22 06:46:55;;;;;;;13.63;2.15;;;;;;;-142.75;100.00;78369.88;5059354;28;20028;-68
2022/02/22 06:49:20;;;;;;;17.02;2.28;;;;;;;-142.75;100.00;78369.88;5070067;28;20482;-69
2022/02/22 06:51:45;;;;;;;22.73;2.97;;;;;;;-142.75;100.00;78362.00;5054436;28;20056;-68
2022/02/22 06:54:11;;;;;;;21.80;2.95;;;;;;;-142.75;100.00;78352.16;5055248;28;20379;-69
2022/02/22 06:56:36;;;;;;;20.27;3.20;;;;;;;-142.75;100.00;78348.22;5049860;28;20040;-69
2022/02/22 06:59:01;;;;;;;20.42;2.78;;;;;;;-142.75;100.00;78330.50;5055165;28;20033;-68
2022/02/22 07:01:27;;;;;;;20.80;2.80;;;;;;;-142.75;100.00;78326.56;5071174;28;20047;-68
2022/02/22 07:03:52;;;;;;;15.27;3.10;;;;;;;-142.75;100.00;78318.69;5069511;28;20063;-69
2022/02/22 07:06:17;;;;;;;19.83;2.85;;;;;;;-142.75;100.00;78306.88;5068716;28;20032;-69
2022/02/22 07:08:42;;;;;;;27.00;3.03;;;;;;;-142.75;100.00;78310.81;5050686;28;20031;-69
2022/02/22 07:11:08;;;;;;;24.08;3.47;;;;;;;-142.75;100.00;78299.00;5049425;28;20059;-69
2022/02/22 07:13:33;;;;;;;27.27;3.17;;;;;;;-142.75;100.00;78297.00;5069758;28;20082;-69
2022/02/22 07:15:59;;;;;;;27.27;3.80;;;;;;;-142.75;100.00;78283.22;5071138;28;20107;-69
2022/02/22 07:18:24;;;;;;;19.80;3.20;;;;;;;-142.75;100.00;78273.38;5055346;28;20028;-68
2022/02/22 07:20:49;;;;;;;16.77;3.05;;;;;;;-142.75;100.00;78263.53;5057903;28;20364;-69
2022/02/22 07:23:15;;;;;;;17.17;2.80;;;;;;;-142.75;100.00;78251.72;5067152;28;20020;-68
2022/02/22 07:25:40;;;;;;;21.87;3.53;;;;;;;-142.75;100.00;78253.69;5069378;28;20051;-69
2022/02/22 07:28:05;;;;;;;30.23;3.50;;;;;;;-142.75;100.00;78230.06;5070508;28;20271;-69
2022/02/22 07:30:31;;;;;;;23.27;3.95;;;;;;;-142.75;100.00;78220.22;5067035;28;20282;-69
2022/02/22 07:32:59;;;;;;;24.55;3.65;;;;;;;-142.75;100.00;78216.28;5048982;28;20029;-68
2022/02/22 07:35:25;;;;;;;25.27;3.50;;;;;;;-142.75;100.00;78214.31;5050221;28;20029;-68
2022/02/22 07:37:52;;;;;;;24.73;3.85;;;;;;;-142.75;100.00;78208.41;5056455;28;20442;-68
2022/02/22 07:40:18;;;;;;;21.83;3.77;;;;;;;-142.75;100.00;78198.56;5069051;28;20048;-69
2022/02/22 07:42:45;;;;;;;26.80;3.87;;;;;;;-142.75;100.00;78200.53;5070537;28;20104;-69
2022/02/22 07:45:12;;;;;;;27.20;4.00;;;;;;;-142.75;100.00;78196.59;5069688;28;20016;-69
2022/02/22 07:47:38;;;;;;;24.03;3.90;;;;;;;-142.75;100.00;78200.53;5070374;28;20032;-68
2022/02/22 07:50:05;;;;;;;23.45;3.88;;;;;;;-142.75;100.00;78188.72;5069747;28;20482;-70
2022/02/22 07:52:31;;;;;;;23.07;4.07;;;;;;;-142.75;100.00;78194.63;5070193;28;20497;-69
2022/02/22 07:54:56;;;;;;;21.52;3.08;;;;;;;-142.75;100.00;78190.69;5070153;28;20024;-69
2022/02/22 07:57:23;;;;;;;25.17;4.90;;;;;;;-142.75;100.00;78192.66;5068988;28;20427;-70
2022/02/22 07:59:48;;;;;;;25.83;4.43;;;;;;;-142.75;100.00;78192.66;5068472;28;20021;-69
2022/02/22 08:02:14;;;;;;;22.15;3.72;;;;;;;-142.75;100.00;78192.66;5070229;28;20032;-69
2022/02/22 08:04:40;;;;;;;23.83;3.80;;;;;;;-142.75;100.00;78184.78;5070083;28;20112;-68
2022/02/22 08:07:07;;;;;;;29.07;4.67;;;;;;;-142.75;100.00;78176.88;5069876;28;20440;-69
2022/02/22 08:09:33;;;;;;;30.37;4.73;;;;;;;-142.75;100.00;78167.03;5069650;28;20025;-67
2022/02/22 08:11:58;;;;;;;36.53;4.93;;;;;;;-142.75;100.00;78153.25;5062371;28;20025;-68
2022/02/22 08:14:24;;;;;;;34.50;4.95;;;;;;;-142.75;100.00;78143.41;5049932;28;20414;-68
2022/02/22 08:16:50;;;;;;;18.60;3.83;;;;;;;-142.75;100.00;78129.63;5048356;28;20115;-68
2022/02/22 08:19:16;;;;;;;29.03;4.20;;;;;;;-142.75;100.00;78125.69;5049532;28;20013;-69
2022/02/22 08:21:41;;;;;;;32.78;4.35;;;;;;;-142.75;100.00;78123.72;5049804;28;20025;-68
2022/02/22 08:24:07;;;;;;;26.63;4.10;;;;;;;-142.75;100.00;78100.09;5049210;28;20102;-68
2022/02/22 08:26:33;;;;;;;18.23;3.92;;;;;;;-142.75;100.00;78090.25;5048442;28;20075;-69
2022/02/22 08:28:58;;;;;;;29.80;5.03;;;;;;;-142.75;100.00;78090.25;5048686;28;20108;-69
2022/02/22 08:31:25;;;;;;;26.80;4.53;;;;;;;-142.75;100.00;78088.28;5049018;28;20029;-69
2022/02/22 08:33:52;;;;;;;28.00;3.83;;;;;;;-142.75;100.00;78078.44;5048794;28;20053;-69
2022/02/22 08:36:17;;;;;;;26.10;3.93;;;;;;;-142.75;100.00;78064.66;5048086;28;20442;-69
2022/02/22 08:38:44;;;;;;;27.67;4.32;;;;;;;-142.75;100.00;78058.72;5047902;28;20032;-69
2022/02/22 08:41:09;;;;;;;23.23;4.00;;;;;;;-142.75;100.00;78062.69;5049732;28;20021;-69
2022/02/22 08:43:35;;;;;;;29.95;4.65;;;;;;;-142.75;100.00;78048.88;5068947;28;20048;-69
2022/02/22 08:46:01;;;;;;;26.73;4.38;;;;;;;-142.75;100.00;78046.91;5069823;28;20029;-69
2022/02/22 08:48:27;;;;;;;;;;;;;;;-142.75;100.00;78044.94;5052497;28;20051;-69
2022/02/22 08:50:52;;;;;;;25.03;5.47;;;;;;;-142.75;100.00;78044.94;5048780;28;19921;-69
2022/02/22 08:53:17;;;;;;;22.75;4.85;;;;;;;-142.75;100.00;78042.97;5049055;28;20090;-69
2022/02/22 08:55:43;;;;;;;20.05;4.30;;;;;;;-142.75;100.00;78035.09;5047357;28;20024;-69
2022/02/22 08:58:08;;;;;;;20.85;4.75;;;;;;;-142.75;100.00;78017.38;5047824;28;20031;-69
2022/02/22 09:00:36;;;;;;;29.17;5.32;;;;;;;-142.75;100.00;77983.91;5049073;28;20516;-68
2022/02/22 09:03:03;;;;;;;23.23;5.00;;;;;;;-142.75;100.00;77944.53;5049154;28;20111;-69
2022/02/22 09:05:29;;;;;;;23.90;4.63;;;;;;;-142.75;100.00;77911.06;5049448;28;20027;-69
2022/02/22 09:07:55;;;;;;;26.50;5.20;;;;;;;-142.75;100.00;77909.06;5048845;28;20510;-69
2022/02/22 09:10:21;;;;;;;23.70;4.43;;;;;;;-142.75;100.00;77948.47;5047450;28;20029;-69
2022/02/22 09:12:47;;;;;;;17.35;5.60;;;;;;;-142.75;100.00;77960.28;5049292;28;20115;-69
2022/02/22 09:15:14;;;;;;;19.03;5.37;;;;;;;-142.75;100.00;77976.03;5047722;28;20020;-69
2022/02/22 09:17:40;;;;;;;23.10;5.30;;;;;;;-142.75;100.00;77960.28;5048961;28;20511;-68
2022/02/22 09:20:08;;;;;;;28.38;5.55;;;;;;;-142.75;100.00;77968.16;5047085;28;20376;-68
2022/02/22 09:22:37;;;;;;;20.93;4.93;;;;;;;-142.75;100.00;77983.91;5052311;28;20028;-69
2022/02/22 09:25:05;;;;;;;21.37;5.27;;;;;;;-142.75;100.00;77970.13;5052635;28;20111;-69
2022/02/22 09:27:30;;;;;;;28.43;5.87;;;;;;;-142.75;100.00;77948.47;5063844;28;20070;-69
2022/02/22 09:29:56;;;;;;;22.55;5.25;;;;;;;-142.75;100.00;77948.47;5071200;28;20036;-69
2022/02/22 09:32:23;;;;;;;22.63;5.07;;;;;;;-142.75;100.00;77920.91;5071618;28;20029;-68
2022/02/22 09:34:48;;;;;;;21.27;4.57;;;;;;;-142.75;100.00;77928.78;5070732;28;20452;-69
2022/02/22 09:37:13;;;;;;;32.35;5.18;;;;;;;-142.75;100.00;77928.78;5052094;28;20040;-68
2022/02/22 09:39:39;;;;;;;22.53;5.10;;;;;;;-142.75;100.00;77946.50;5051346;28;20051;-69
2022/02/22 09:42:08;;;;;;;27.10;6.90;;;;;;;-142.75;100.00;77922.88;5051655;28;20791;-69
2022/02/22 09:44:35;;;;;;;23.13;4.57;;;;;;;-142.75;100.00;77946.50;5051689;28;20035;-69
2022/02/22 09:47:02;;;;;;;17.83;4.67;;;;;;;-142.75;100.00;77942.56;5051290;28;20111;-69
2022/02/22 09:49:27;;;;;;;22.10;5.20;;;;;;;-142.75;100.00;77948.47;5049994;28;20025;-69
2022/02/22 09:51:53;;;;;;;30.67;5.50;;;;;;;-142.75;100.00;77940.59;5051376;28;20033;-69
2022/02/22 09:54:20;;;;;;;30.05;5.22;;;;;;;-142.75;100.00;77926.81;5051501;28;20075;-69
2022/02/22 09:56:46;;;;;;;24.37;4.90;;;;;;;-142.75;100.00;77928.78;5051454;28;20024;-69
2022/02/22 09:59:13;;;;;;;35.70;5.57;;;;;;;-142.75;100.00;77936.66;5050821;28;20025;-69
2022/02/22 10:01:43;;;;;;;27.67;6.33;;;;;;;-142.75;100.00;77928.78;5051104;28;20033;-69
2022/02/22 10:04:09;;;;;;;33.00;5.63;;;;;;;-142.75;100.00;77926.81;5051641;28;20501;-69
2022/02/22 10:06:35;;;;;;;23.40;5.63;;;;;;;-142.75;100.00;77922.88;5050636;28;20028;-69
2022/02/22 10:09:01;;;;;;;20.83;5.43;;;;;;;-142.75;100.00;77940.59;5050492;28;20410;-69
2022/02/22 10:11:26;;;;;;;38.55;6.97;;;;;;;-142.75;100.00;77930.75;5049868;28;20021;-68
2022/02/22 10:13:51;;;;;;;34.22;6.53;;;;;;;-142.75;100.00;77942.56;5051386;28;20040;-69
2022/02/22 10:16:17;;;;;;;30.45;5.47;;;;;;;-142.75;100.00;77936.66;5051227;28;20029;-69
2022/02/22 10:18:50;;;;;;;27.38;5.57;;;;;;;-142.75;100.00;77944.53;5048482;28;20025;-71
2022/02/22 10:21:17;;;;;;;32.73;5.93;;;;;;;-142.75;100.00;77940.59;5050909;28;20033;-70
2022/02/22 10:23:43;;;;;;;31.83;6.30;;;;;;;-142.75;100.00;77913.03;5049279;28;20086;-70
2022/02/22 10:26:21;;;;;;;41.42;7.32;;;;;;;-142.75;100.00;77907.09;5050240;28;20029;-69
2022/02/22 10:28:46;;;;;;;28.13;6.43;;;;;;;-142.75;100.00;77924.84;5066910;28;20043;-69
2022/02/22 10:31:12;;;;;;;29.90;6.30;;;;;;;-142.75;100.00;77913.03;5069190;28;20115;-69
2022/02/22 10:33:44;;;;;;;34.47;6.30;;;;;;;-142.75;100.00;77918.94;5057272;28;20033;-69
2022/02/22 10:36:18;;;;;;;41.33;6.80;;;;;;;-142.75;100.00;77913.03;5051337;28;20103;-69
2022/02/22 10:38:43;;;;;;;33.97;6.23;;;;;;;-142.75;100.00;77924.84;5050911;28;20035;-69
2022/02/22 10:41:14;;;;;;;27.70;6.90;;;;;;;-142.75;100.00;77934.69;5051107;28;20028;-69
2022/02/22 10:43:41;;;;;;;34.00;7.00;;;;;;;-142.75;100.00;77915.00;5051248;28;20025;-69
2022/02/22 10:46:09;;;;;;;38.37;7.37;;;;;;;-142.75;100.00;77922.88;5048099;28;20064;-69
2022/02/22 10:48:36;;;;;;;34.00;6.37;;;;;;;-142.75;100.00;77909.06;5049281;28;20064;-69
2022/02/22 10:51:05;;;;;;;35.03;5.80;;;;;;;-142.75;100.00;77922.88;5061830;28;20036;-70
2022/02/22 10:53:40;;;;;;;28.93;7.47;;;;;;;-142.75;100.00;77915.00;5047519;28;20120;-69
2022/02/22 10:56:09;;;;;;;32.60;6.63;;;;;;;-142.75;100.00;77909.06;5046785;28;20490;-69
2022/02/22 10:58:34;;;;;;;34.10;6.53;;;;;;;-142.75;100.00;77883.47;5048760;28;20025;-69
2022/02/22 11:01:02;;;;;;;30.50;6.35;;;;;;;-142.75;100.00;77877.56;5048778;28;20028;-69
2022/02/22 11:03:28;;;;;;;40.23;9.17;;;;;;;-142.75;100.00;77865.75;5049217;28;20020;-69
2022/02/22 11:05:54;;;;;;;32.55;7.45;;;;;;;-142.75;100.00;77857.88;5050660;28;20047;-69